<?xml version="1.0" encoding="UTF-8"?>
<gpx xmlns="http://www.topografix.com/GPX/1/1" xmlns:xsi="http://www.w3.org/2001/XMLSchema-instance" version="1.1" xsi:schemaLocation="http://www.topografix.com/GPX/1/1 http://www.topografix.com/GPX/1/1/gpx.xsd">
  <metadata>
    <name>Maumee Bay Creek Triathlon 2022 - Sprint Aquabike</name>
  </metadata>
  <trk>
    <name>Maumee Bay Creek Triathlon 2022 - Sprint Aquabike</name>
    <trkseg>
      <trkpt lat="41.684239" lon="-83.379842">
        <ele>175.000003</ele>
        <time>2023-06-18T08:00:00.000Z</time>
      </trkpt>
      <trkpt lat="41.683972" lon="-83.37989">
        <ele>174.999996</ele>
        <time>2023-06-18T08:00:03.000Z</time>
      </trkpt>
      <trkpt lat="41.682583" lon="-83.380224">
        <ele>174.999996</ele>
        <time>2023-06-18T08:00:19.000Z</time>
      </trkpt>
      <trkpt lat="41.682185" lon="-83.380296">
        <ele>175.000008</ele>
        <time>2023-06-18T08:00:23.000Z</time>
      </trkpt>
      <trkpt lat="41.681918" lon="-83.380291">
        <ele>175.000009</ele>
        <time>2023-06-18T08:00:26.000Z</time>
      </trkpt>
      <trkpt lat="41.68167" lon="-83.380241">
        <ele>174.999994</ele>
        <time>2023-06-18T08:00:29.000Z</time>
      </trkpt>
      <trkpt lat="41.681417" lon="-83.380123">
        <ele>174.999994</ele>
        <time>2023-06-18T08:00:32.000Z</time>
      </trkpt>
      <trkpt lat="41.681124" lon="-83.379941">
        <ele>174.999995</ele>
        <time>2023-06-18T08:00:36.000Z</time>
      </trkpt>
      <trkpt lat="41.681072" lon="-83.379897">
        <ele>175.000006</ele>
        <time>2023-06-18T08:00:37.000Z</time>
      </trkpt>
      <trkpt lat="41.680754" lon="-83.37954">
        <ele>174.999997</ele>
        <time>2023-06-18T08:00:42.000Z</time>
      </trkpt>
      <trkpt lat="41.680478" lon="-83.379041">
        <ele>175.000007</ele>
        <time>2023-06-18T08:00:47.000Z</time>
      </trkpt>
      <trkpt lat="41.680355" lon="-83.378662">
        <ele>174.999998</ele>
        <time>2023-06-18T08:00:50.000Z</time>
      </trkpt>
      <trkpt lat="41.680239" lon="-83.37812">
        <ele>175.000007</ele>
        <time>2023-06-18T08:00:55.000Z</time>
      </trkpt>
      <trkpt lat="41.680088" lon="-83.377441">
        <ele>174.999995</ele>
        <time>2023-06-18T08:01:01.000Z</time>
      </trkpt>
      <trkpt lat="41.679982" lon="-83.377103">
        <ele>175.000007</ele>
        <time>2023-06-18T08:01:04.000Z</time>
      </trkpt>
      <trkpt lat="41.679906" lon="-83.376859">
        <ele>174.999991</ele>
        <time>2023-06-18T08:01:06.000Z</time>
      </trkpt>
      <trkpt lat="41.679779" lon="-83.376523">
        <ele>175</ele>
        <time>2023-06-18T08:01:09.000Z</time>
      </trkpt>
      <trkpt lat="41.679621" lon="-83.376212">
        <ele>174.999998</ele>
        <time>2023-06-18T08:01:12.000Z</time>
      </trkpt>
      <trkpt lat="41.679414" lon="-83.375968">
        <ele>175.000005</ele>
        <time>2023-06-18T08:01:15.000Z</time>
      </trkpt>
      <trkpt lat="41.678889" lon="-83.375453">
        <ele>174.999999</ele>
        <time>2023-06-18T08:01:22.000Z</time>
      </trkpt>
      <trkpt lat="41.678623" lon="-83.375087">
        <ele>175.000006</ele>
        <time>2023-06-18T08:01:26.000Z</time>
      </trkpt>
      <trkpt lat="41.678418" lon="-83.374723">
        <ele>174.999995</ele>
        <time>2023-06-18T08:01:30.000Z</time>
      </trkpt>
      <trkpt lat="41.678285" lon="-83.374432">
        <ele>174.999991</ele>
        <time>2023-06-18T08:01:33.000Z</time>
      </trkpt>
      <trkpt lat="41.678059" lon="-83.373793">
        <ele>174.999999</ele>
        <time>2023-06-18T08:01:39.000Z</time>
      </trkpt>
      <trkpt lat="41.677955" lon="-83.373332">
        <ele>174.999999</ele>
        <time>2023-06-18T08:01:43.000Z</time>
      </trkpt>
      <trkpt lat="41.677864" lon="-83.372627">
        <ele>174.999997</ele>
        <time>2023-06-18T08:01:49.000Z</time>
      </trkpt>
      <trkpt lat="41.67787" lon="-83.372047">
        <ele>174.999679</ele>
        <time>2023-06-18T08:01:54.000Z</time>
      </trkpt>
      <trkpt lat="41.677908" lon="-83.371339">
        <ele>174.999031</ele>
        <time>2023-06-18T08:02:00.000Z</time>
      </trkpt>
      <trkpt lat="41.677899" lon="-83.371153">
        <ele>174.998861</ele>
        <time>2023-06-18T08:02:02.000Z</time>
      </trkpt>
      <trkpt lat="41.677839" lon="-83.370903">
        <ele>174.998641</ele>
        <time>2023-06-18T08:02:04.000Z</time>
      </trkpt>
      <trkpt lat="41.677684" lon="-83.370544">
        <ele>174.998277</ele>
        <time>2023-06-18T08:02:07.000Z</time>
      </trkpt>
      <trkpt lat="41.677581" lon="-83.370405">
        <ele>174.998108</ele>
        <time>2023-06-18T08:02:09.000Z</time>
      </trkpt>
      <trkpt lat="41.677394" lon="-83.370176">
        <ele>174.990437</ele>
        <time>2023-06-18T08:02:12.000Z</time>
      </trkpt>
      <trkpt lat="41.677285" lon="-83.370087">
        <ele>174.972825</ele>
        <time>2023-06-18T08:02:13.000Z</time>
      </trkpt>
      <trkpt lat="41.677081" lon="-83.369989">
        <ele>174.945711</ele>
        <time>2023-06-18T08:02:15.000Z</time>
      </trkpt>
      <trkpt lat="41.676783" lon="-83.36992">
        <ele>174.908608</ele>
        <time>2023-06-18T08:02:18.000Z</time>
      </trkpt>
      <trkpt lat="41.67631" lon="-83.369966">
        <ele>174.849749</ele>
        <time>2023-06-18T08:02:23.000Z</time>
      </trkpt>
      <trkpt lat="41.676013" lon="-83.370068">
        <ele>174.810765</ele>
        <time>2023-06-18T08:02:26.000Z</time>
      </trkpt>
      <trkpt lat="41.675652" lon="-83.370219">
        <ele>174.772115</ele>
        <time>2023-06-18T08:02:30.000Z</time>
      </trkpt>
      <trkpt lat="41.675256" lon="-83.370528">
        <ele>174.774271</ele>
        <time>2023-06-18T08:02:35.000Z</time>
      </trkpt>
      <trkpt lat="41.675074" lon="-83.370695">
        <ele>174.77535</ele>
        <time>2023-06-18T08:02:37.000Z</time>
      </trkpt>
      <trkpt lat="41.674943" lon="-83.37073">
        <ele>174.775984</ele>
        <time>2023-06-18T08:02:38.000Z</time>
      </trkpt>
      <trkpt lat="41.674787" lon="-83.370765">
        <ele>174.77674</ele>
        <time>2023-06-18T08:02:40.000Z</time>
      </trkpt>
      <trkpt lat="41.674713" lon="-83.370701">
        <ele>174.777139</ele>
        <time>2023-06-18T08:02:41.000Z</time>
      </trkpt>
      <trkpt lat="41.674711" lon="-83.370958">
        <ele>174.778035</ele>
        <time>2023-06-18T08:02:43.000Z</time>
      </trkpt>
      <trkpt lat="41.674711" lon="-83.371169">
        <ele>174.778757</ele>
        <time>2023-06-18T08:02:45.000Z</time>
      </trkpt>
      <trkpt lat="41.674709" lon="-83.371526">
        <ele>174.780034</ele>
        <time>2023-06-18T08:02:48.000Z</time>
      </trkpt>
      <trkpt lat="41.674704" lon="-83.371576">
        <ele>174.780211</ele>
        <time>2023-06-18T08:02:48.000Z</time>
      </trkpt>
      <trkpt lat="41.674695" lon="-83.375537">
        <ele>175.698502</ele>
        <time>2023-06-18T08:03:21.000Z</time>
      </trkpt>
      <trkpt lat="41.674687" lon="-83.377518">
        <ele>175.937518</ele>
        <time>2023-06-18T08:03:37.000Z</time>
      </trkpt>
      <trkpt lat="41.674704" lon="-83.380055">
        <ele>176.000007</ele>
        <time>2023-06-18T08:03:58.000Z</time>
      </trkpt>
      <trkpt lat="41.674665" lon="-83.386615">
        <ele>175.999992</ele>
        <time>2023-06-18T08:04:52.000Z</time>
      </trkpt>
      <trkpt lat="41.674652" lon="-83.387873">
        <ele>176.000003</ele>
        <time>2023-06-18T08:05:02.000Z</time>
      </trkpt>
      <trkpt lat="41.674652" lon="-83.390231">
        <ele>175.999993</ele>
        <time>2023-06-18T08:05:22.000Z</time>
      </trkpt>
      <trkpt lat="41.674625" lon="-83.395387">
        <ele>176.000008</ele>
        <time>2023-06-18T08:06:05.000Z</time>
      </trkpt>
      <trkpt lat="41.674609" lon="-83.396637">
        <ele>175.999991</ele>
        <time>2023-06-18T08:06:15.000Z</time>
      </trkpt>
      <trkpt lat="41.674591" lon="-83.398752">
        <ele>176.007408</ele>
        <time>2023-06-18T08:06:33.000Z</time>
      </trkpt>
      <trkpt lat="41.674601" lon="-83.398975">
        <ele>176.010045</ele>
        <time>2023-06-18T08:06:35.000Z</time>
      </trkpt>
      <trkpt lat="41.674594" lon="-83.399711">
        <ele>176.018501</ele>
        <time>2023-06-18T08:06:41.000Z</time>
      </trkpt>
      <trkpt lat="41.674584" lon="-83.400673">
        <ele>176.045826</ele>
        <time>2023-06-18T08:06:49.000Z</time>
      </trkpt>
      <trkpt lat="41.674571" lon="-83.402313">
        <ele>176.231145</ele>
        <time>2023-06-18T08:07:03.000Z</time>
      </trkpt>
      <trkpt lat="41.674552" lon="-83.405432">
        <ele>176.587959</ele>
        <time>2023-06-18T08:07:29.000Z</time>
      </trkpt>
      <trkpt lat="41.674532" lon="-83.408398">
        <ele>176.315824</ele>
        <time>2023-06-18T08:07:54.000Z</time>
      </trkpt>
      <trkpt lat="41.674519" lon="-83.409653">
        <ele>176.301746</ele>
        <time>2023-06-18T08:08:04.000Z</time>
      </trkpt>
      <trkpt lat="41.672231" lon="-83.409647">
        <ele>176.719163</ele>
        <time>2023-06-18T08:08:29.000Z</time>
      </trkpt>
      <trkpt lat="41.668102" lon="-83.409614">
        <ele>177.747619</ele>
        <time>2023-06-18T08:09:15.000Z</time>
      </trkpt>
      <trkpt lat="41.662363" lon="-83.409582">
        <ele>178.120834</ele>
        <time>2023-06-18T08:10:19.000Z</time>
      </trkpt>
      <trkpt lat="41.661131" lon="-83.409593">
        <ele>178.190527</ele>
        <time>2023-06-18T08:10:33.000Z</time>
      </trkpt>
      <trkpt lat="41.659954" lon="-83.409606">
        <ele>178.259931</ele>
        <time>2023-06-18T08:10:46.000Z</time>
      </trkpt>
      <trkpt lat="41.659951" lon="-83.409468">
        <ele>178.265789</ele>
        <time>2023-06-18T08:10:47.000Z</time>
      </trkpt>
      <trkpt lat="41.659964" lon="-83.408877">
        <ele>178.233477</ele>
        <time>2023-06-18T08:10:52.000Z</time>
      </trkpt>
      <trkpt lat="41.659967" lon="-83.408238">
        <ele>178.182978</ele>
        <time>2023-06-18T08:10:57.000Z</time>
      </trkpt>
      <trkpt lat="41.65997" lon="-83.407331">
        <ele>178.111626</ele>
        <time>2023-06-18T08:11:05.000Z</time>
      </trkpt>
      <trkpt lat="41.659982" lon="-83.406864">
        <ele>178.078646</ele>
        <time>2023-06-18T08:11:09.000Z</time>
      </trkpt>
      <trkpt lat="41.65998" lon="-83.406244">
        <ele>178.057967</ele>
        <time>2023-06-18T08:11:14.000Z</time>
      </trkpt>
      <trkpt lat="41.659971" lon="-83.405681">
        <ele>178.038671</ele>
        <time>2023-06-18T08:11:19.000Z</time>
      </trkpt>
      <trkpt lat="41.659972" lon="-83.405167">
        <ele>178.021569</ele>
        <time>2023-06-18T08:11:23.000Z</time>
      </trkpt>
      <trkpt lat="41.659994" lon="-83.403679">
        <ele>177.999999</ele>
        <time>2023-06-18T08:11:35.000Z</time>
      </trkpt>
      <trkpt lat="41.659995" lon="-83.400549">
        <ele>177.915198</ele>
        <time>2023-06-18T08:12:01.000Z</time>
      </trkpt>
      <trkpt lat="41.66001" lon="-83.399136">
        <ele>177.746086</ele>
        <time>2023-06-18T08:12:13.000Z</time>
      </trkpt>
      <trkpt lat="41.660023" lon="-83.397907">
        <ele>177.488862</ele>
        <time>2023-06-18T08:12:23.000Z</time>
      </trkpt>
      <trkpt lat="41.660026" lon="-83.396983">
        <ele>177.348973</ele>
        <time>2023-06-18T08:12:31.000Z</time>
      </trkpt>
      <trkpt lat="41.660024" lon="-83.396388">
        <ele>177.326642</ele>
        <time>2023-06-18T08:12:36.000Z</time>
      </trkpt>
      <trkpt lat="41.660042" lon="-83.393754">
        <ele>177.448725</ele>
        <time>2023-06-18T08:12:58.000Z</time>
      </trkpt>
      <trkpt lat="41.660033" lon="-83.393181">
        <ele>177.540126</ele>
        <time>2023-06-18T08:13:03.000Z</time>
      </trkpt>
      <trkpt lat="41.660054" lon="-83.392339">
        <ele>177.661481</ele>
        <time>2023-06-18T08:13:10.000Z</time>
      </trkpt>
      <trkpt lat="41.660047" lon="-83.391797">
        <ele>177.710394</ele>
        <time>2023-06-18T08:13:15.000Z</time>
      </trkpt>
      <trkpt lat="41.66006" lon="-83.390163">
        <ele>177.857256</ele>
        <time>2023-06-18T08:13:29.000Z</time>
      </trkpt>
      <trkpt lat="41.665126" lon="-83.390219">
        <ele>177.369085</ele>
        <time>2023-06-18T08:14:25.000Z</time>
      </trkpt>
      <trkpt lat="41.667845" lon="-83.390224">
        <ele>176.400197</ele>
        <time>2023-06-18T08:14:55.000Z</time>
      </trkpt>
      <trkpt lat="41.668103" lon="-83.390226">
        <ele>176.329917</ele>
        <time>2023-06-18T08:14:58.000Z</time>
      </trkpt>
      <trkpt lat="41.669586" lon="-83.390238">
        <ele>176.052521</ele>
        <time>2023-06-18T08:15:14.000Z</time>
      </trkpt>
      <trkpt lat="41.672119" lon="-83.390237">
        <ele>176.000002</ele>
        <time>2023-06-18T08:15:42.000Z</time>
      </trkpt>
      <trkpt lat="41.674666" lon="-83.390239">
        <ele>176.000009</ele>
        <time>2023-06-18T08:16:10.000Z</time>
      </trkpt>
      <trkpt lat="41.674645" lon="-83.387864">
        <ele>175.999995</ele>
        <time>2023-06-18T08:16:30.000Z</time>
      </trkpt>
      <trkpt lat="41.674669" lon="-83.386616">
        <ele>175.999991</ele>
        <time>2023-06-18T08:16:40.000Z</time>
      </trkpt>
      <trkpt lat="41.674701" lon="-83.380065">
        <ele>175.999355</ele>
        <time>2023-06-18T08:17:34.000Z</time>
      </trkpt>
      <trkpt lat="41.674689" lon="-83.377513">
        <ele>175.932321</ele>
        <time>2023-06-18T08:17:55.000Z</time>
      </trkpt>
      <trkpt lat="41.674703" lon="-83.375543">
        <ele>175.69423</ele>
        <time>2023-06-18T08:18:11.000Z</time>
      </trkpt>
      <trkpt lat="41.674703" lon="-83.371585">
        <ele>174.561219</ele>
        <time>2023-06-18T08:18:44.000Z</time>
      </trkpt>
      <trkpt lat="41.674708" lon="-83.371167">
        <ele>174.441759</ele>
        <time>2023-06-18T08:18:47.000Z</time>
      </trkpt>
      <trkpt lat="41.674702" lon="-83.370967">
        <ele>174.421822</ele>
        <time>2023-06-18T08:18:49.000Z</time>
      </trkpt>
      <trkpt lat="41.674712" lon="-83.370706">
        <ele>174.396872</ele>
        <time>2023-06-18T08:18:51.000Z</time>
      </trkpt>
      <trkpt lat="41.674722" lon="-83.369284">
        <ele>174.256675</ele>
        <time>2023-06-18T08:19:03.000Z</time>
      </trkpt>
      <trkpt lat="41.674703" lon="-83.366772">
        <ele>174.202063</ele>
        <time>2023-06-18T08:19:24.000Z</time>
      </trkpt>
      <trkpt lat="41.674711" lon="-83.365607">
        <ele>174.239291</ele>
        <time>2023-06-18T08:19:34.000Z</time>
      </trkpt>
      <trkpt lat="41.674725" lon="-83.365385">
        <ele>174.25103</ele>
        <time>2023-06-18T08:19:36.000Z</time>
      </trkpt>
      <trkpt lat="41.674723" lon="-83.364484">
        <ele>174.296295</ele>
        <time>2023-06-18T08:19:43.000Z</time>
      </trkpt>
      <trkpt lat="41.674811" lon="-83.351523">
        <ele>174.976037</ele>
        <time>2023-06-18T08:21:31.000Z</time>
      </trkpt>
      <trkpt lat="41.673651" lon="-83.351514">
        <ele>174.99454</ele>
        <time>2023-06-18T08:21:44.000Z</time>
      </trkpt>
      <trkpt lat="41.673197" lon="-83.351509">
        <ele>174.998606</ele>
        <time>2023-06-18T08:21:49.000Z</time>
      </trkpt>
      <trkpt lat="41.672001" lon="-83.351483">
        <ele>174.980265</ele>
        <time>2023-06-18T08:22:02.000Z</time>
      </trkpt>
      <trkpt lat="41.66804" lon="-83.351444">
        <ele>174.765256</ele>
        <time>2023-06-18T08:22:46.000Z</time>
      </trkpt>
      <trkpt lat="41.667509" lon="-83.35144">
        <ele>174.701374</ele>
        <time>2023-06-18T08:22:52.000Z</time>
      </trkpt>
      <trkpt lat="41.667523" lon="-83.348529">
        <ele>174.558043</ele>
        <time>2023-06-18T08:23:16.000Z</time>
      </trkpt>
      <trkpt lat="41.667539" lon="-83.347551">
        <ele>174.605893</ele>
        <time>2023-06-18T08:23:24.000Z</time>
      </trkpt>
      <trkpt lat="41.667539" lon="-83.34708">
        <ele>174.63592</ele>
        <time>2023-06-18T08:23:28.000Z</time>
      </trkpt>
      <trkpt lat="41.667542" lon="-83.346593">
        <ele>174.699732</ele>
        <time>2023-06-18T08:23:32.000Z</time>
      </trkpt>
      <trkpt lat="41.667548" lon="-83.345006">
        <ele>174.907237</ele>
        <time>2023-06-18T08:23:45.000Z</time>
      </trkpt>
      <trkpt lat="41.66758" lon="-83.343067">
        <ele>174.84776</ele>
        <time>2023-06-18T08:24:01.000Z</time>
      </trkpt>
      <trkpt lat="41.667575" lon="-83.34272">
        <ele>174.828029</ele>
        <time>2023-06-18T08:24:04.000Z</time>
      </trkpt>
      <trkpt lat="41.667591" lon="-83.341093">
        <ele>174.6317</ele>
        <time>2023-06-18T08:24:18.000Z</time>
      </trkpt>
      <trkpt lat="41.667585" lon="-83.340962">
        <ele>174.614341</ele>
        <time>2023-06-18T08:24:19.000Z</time>
      </trkpt>
      <trkpt lat="41.667602" lon="-83.340139">
        <ele>174.497815</ele>
        <time>2023-06-18T08:24:26.000Z</time>
      </trkpt>
      <trkpt lat="41.667601" lon="-83.339945">
        <ele>174.472624</ele>
        <time>2023-06-18T08:24:28.000Z</time>
      </trkpt>
      <trkpt lat="41.667626" lon="-83.336645">
        <ele>174.481664</ele>
        <time>2023-06-18T08:24:55.000Z</time>
      </trkpt>
      <trkpt lat="41.667612" lon="-83.335781">
        <ele>174.559861</ele>
        <time>2023-06-18T08:25:02.000Z</time>
      </trkpt>
      <trkpt lat="41.667615" lon="-83.335151">
        <ele>174.616794</ele>
        <time>2023-06-18T08:25:07.000Z</time>
      </trkpt>
      <trkpt lat="41.667609" lon="-83.335069">
        <ele>174.625885</ele>
        <time>2023-06-18T08:25:08.000Z</time>
      </trkpt>
      <trkpt lat="41.667612" lon="-83.334804">
        <ele>174.657911</ele>
        <time>2023-06-18T08:25:10.000Z</time>
      </trkpt>
      <trkpt lat="41.667623" lon="-83.333076">
        <ele>174.877515</ele>
        <time>2023-06-18T08:25:24.000Z</time>
      </trkpt>
      <trkpt lat="41.667651" lon="-83.331937">
        <ele>174.949298</ele>
        <time>2023-06-18T08:25:33.000Z</time>
      </trkpt>
      <trkpt lat="41.669255" lon="-83.331974">
        <ele>175.000007</ele>
        <time>2023-06-18T08:25:51.000Z</time>
      </trkpt>
      <trkpt lat="41.670105" lon="-83.331988">
        <ele>174.999991</ele>
        <time>2023-06-18T08:26:00.000Z</time>
      </trkpt>
      <trkpt lat="41.67079" lon="-83.332007">
        <ele>175.000006</ele>
        <time>2023-06-18T08:26:08.000Z</time>
      </trkpt>
      <trkpt lat="41.672272" lon="-83.332034">
        <ele>175.000006</ele>
        <time>2023-06-18T08:26:24.000Z</time>
      </trkpt>
      <trkpt lat="41.67245" lon="-83.332038">
        <ele>175.000007</ele>
        <time>2023-06-18T08:26:26.000Z</time>
      </trkpt>
      <trkpt lat="41.672884" lon="-83.332037">
        <ele>175.000008</ele>
        <time>2023-06-18T08:26:31.000Z</time>
      </trkpt>
      <trkpt lat="41.673224" lon="-83.332036">
        <ele>174.999992</ele>
        <time>2023-06-18T08:26:35.000Z</time>
      </trkpt>
      <trkpt lat="41.674948" lon="-83.332018">
        <ele>175.000005</ele>
        <time>2023-06-18T08:26:54.000Z</time>
      </trkpt>
      <trkpt lat="41.675062" lon="-83.332047">
        <ele>174.999999</ele>
        <time>2023-06-18T08:26:55.000Z</time>
      </trkpt>
      <trkpt lat="41.675148" lon="-83.332118">
        <ele>174.999999</ele>
        <time>2023-06-18T08:26:56.000Z</time>
      </trkpt>
      <trkpt lat="41.675184" lon="-83.332314">
        <ele>174.999997</ele>
        <time>2023-06-18T08:26:58.000Z</time>
      </trkpt>
      <trkpt lat="41.675197" lon="-83.332855">
        <ele>175.000001</ele>
        <time>2023-06-18T08:27:02.000Z</time>
      </trkpt>
      <trkpt lat="41.675167" lon="-83.334028">
        <ele>174.999998</ele>
        <time>2023-06-18T08:27:12.000Z</time>
      </trkpt>
      <trkpt lat="41.675158" lon="-83.335466">
        <ele>175.000006</ele>
        <time>2023-06-18T08:27:24.000Z</time>
      </trkpt>
      <trkpt lat="41.675153" lon="-83.336095">
        <ele>174.999997</ele>
        <time>2023-06-18T08:27:29.000Z</time>
      </trkpt>
      <trkpt lat="41.67514" lon="-83.336351">
        <ele>174.999997</ele>
        <time>2023-06-18T08:27:31.000Z</time>
      </trkpt>
      <trkpt lat="41.675128" lon="-83.336814">
        <ele>175.000006</ele>
        <time>2023-06-18T08:27:35.000Z</time>
      </trkpt>
      <trkpt lat="41.675107" lon="-83.337575">
        <ele>174.999996</ele>
        <time>2023-06-18T08:27:41.000Z</time>
      </trkpt>
      <trkpt lat="41.675079" lon="-83.339257">
        <ele>174.999994</ele>
        <time>2023-06-18T08:27:55.000Z</time>
      </trkpt>
      <trkpt lat="41.675037" lon="-83.340459">
        <ele>175.000008</ele>
        <time>2023-06-18T08:28:05.000Z</time>
      </trkpt>
      <trkpt lat="41.67504" lon="-83.34108">
        <ele>174.999991</ele>
        <time>2023-06-18T08:28:10.000Z</time>
      </trkpt>
      <trkpt lat="41.675003" lon="-83.342279">
        <ele>175.000004</ele>
        <time>2023-06-18T08:28:20.000Z</time>
      </trkpt>
      <trkpt lat="41.674991" lon="-83.342834">
        <ele>175.000006</ele>
        <time>2023-06-18T08:28:25.000Z</time>
      </trkpt>
      <trkpt lat="41.674895" lon="-83.347894">
        <ele>175</ele>
        <time>2023-06-18T08:29:07.000Z</time>
      </trkpt>
      <trkpt lat="41.674803" lon="-83.351181">
        <ele>174.976083</ele>
        <time>2023-06-18T08:29:34.000Z</time>
      </trkpt>
      <trkpt lat="41.674795" lon="-83.351532">
        <ele>174.967879</ele>
        <time>2023-06-18T08:29:37.000Z</time>
      </trkpt>
      <trkpt lat="41.674734" lon="-83.364474">
        <ele>174.284125</ele>
        <time>2023-06-18T08:31:24.000Z</time>
      </trkpt>
      <trkpt lat="41.674739" lon="-83.365369">
        <ele>174.251867</ele>
        <time>2023-06-18T08:31:31.000Z</time>
      </trkpt>
      <trkpt lat="41.674718" lon="-83.365611">
        <ele>174.244503</ele>
        <time>2023-06-18T08:31:33.000Z</time>
      </trkpt>
      <trkpt lat="41.674705" lon="-83.366765">
        <ele>174.207785</ele>
        <time>2023-06-18T08:31:43.000Z</time>
      </trkpt>
      <trkpt lat="41.674718" lon="-83.369285">
        <ele>174.274657</ele>
        <time>2023-06-18T08:32:04.000Z</time>
      </trkpt>
      <trkpt lat="41.674711" lon="-83.370716">
        <ele>174.489519</ele>
        <time>2023-06-18T08:32:16.000Z</time>
      </trkpt>
      <trkpt lat="41.674772" lon="-83.370634">
        <ele>174.508777</ele>
        <time>2023-06-18T08:32:17.000Z</time>
      </trkpt>
      <trkpt lat="41.675052" lon="-83.370582">
        <ele>174.571145</ele>
        <time>2023-06-18T08:32:20.000Z</time>
      </trkpt>
      <trkpt lat="41.675258" lon="-83.370532">
        <ele>174.616998</ele>
        <time>2023-06-18T08:32:22.000Z</time>
      </trkpt>
      <trkpt lat="41.675666" lon="-83.370215">
        <ele>174.708564</ele>
        <time>2023-06-18T08:32:27.000Z</time>
      </trkpt>
      <trkpt lat="41.676015" lon="-83.370056">
        <ele>174.773118</ele>
        <time>2023-06-18T08:32:31.000Z</time>
      </trkpt>
      <trkpt lat="41.676309" lon="-83.369977">
        <ele>174.827309</ele>
        <time>2023-06-18T08:32:34.000Z</time>
      </trkpt>
      <trkpt lat="41.676787" lon="-83.369917">
        <ele>174.909067</ele>
        <time>2023-06-18T08:32:39.000Z</time>
      </trkpt>
      <trkpt lat="41.677065" lon="-83.369977">
        <ele>174.96065</ele>
        <time>2023-06-18T08:32:42.000Z</time>
      </trkpt>
      <trkpt lat="41.677271" lon="-83.370089">
        <ele>174.988551</ele>
        <time>2023-06-18T08:32:44.000Z</time>
      </trkpt>
      <trkpt lat="41.677392" lon="-83.370167">
        <ele>174.989471</ele>
        <time>2023-06-18T08:32:45.000Z</time>
      </trkpt>
      <trkpt lat="41.677594" lon="-83.370408">
        <ele>174.991151</ele>
        <time>2023-06-18T08:32:48.000Z</time>
      </trkpt>
      <trkpt lat="41.677684" lon="-83.370541">
        <ele>174.992046</ele>
        <time>2023-06-18T08:32:49.000Z</time>
      </trkpt>
      <trkpt lat="41.677831" lon="-83.3709">
        <ele>174.994128</ele>
        <time>2023-06-18T08:32:52.000Z</time>
      </trkpt>
      <trkpt lat="41.677889" lon="-83.371148">
        <ele>174.99537</ele>
        <time>2023-06-18T08:32:54.000Z</time>
      </trkpt>
      <trkpt lat="41.677905" lon="-83.37133">
        <ele>174.996298</ele>
        <time>2023-06-18T08:32:56.000Z</time>
      </trkpt>
      <trkpt lat="41.677865" lon="-83.372055">
        <ele>174.99985</ele>
        <time>2023-06-18T08:33:02.000Z</time>
      </trkpt>
      <trkpt lat="41.677867" lon="-83.372629">
        <ele>175.001483716</ele>
        <time>2023-06-18T08:33:07.000Z</time>
      </trkpt>
      <trkpt lat="41.677949" lon="-83.373343">
        <ele>175.003539759</ele>
        <time>2023-06-18T08:33:13.000Z</time>
      </trkpt>
      <trkpt lat="41.678053" lon="-83.373798">
        <ele>175.004894044</ele>
        <time>2023-06-18T08:33:17.000Z</time>
      </trkpt>
      <trkpt lat="41.67828" lon="-83.374431">
        <ele>175.006892561</ele>
        <time>2023-06-18T08:33:23.000Z</time>
      </trkpt>
      <trkpt lat="41.678413" lon="-83.374709">
        <ele>175.007832192</ele>
        <time>2023-06-18T08:33:26.000Z</time>
      </trkpt>
      <trkpt lat="41.678609" lon="-83.375076">
        <ele>175.009116283</ele>
        <time>2023-06-18T08:33:30.000Z</time>
      </trkpt>
      <trkpt lat="41.678891" lon="-83.375441">
        <ele>175.010610926</ele>
        <time>2023-06-18T08:33:34.000Z</time>
      </trkpt>
      <trkpt lat="41.679398" lon="-83.375971">
        <ele>175.013062053</ele>
        <time>2023-06-18T08:33:41.000Z</time>
      </trkpt>
      <trkpt lat="41.679611" lon="-83.376229">
        <ele>175.014156581</ele>
        <time>2023-06-18T08:33:44.000Z</time>
      </trkpt>
      <trkpt lat="41.67978" lon="-83.37652">
        <ele>175.01520571</ele>
        <time>2023-06-18T08:33:47.000Z</time>
      </trkpt>
      <trkpt lat="41.679909" lon="-83.376853">
        <ele>175.016273354</ele>
        <time>2023-06-18T08:33:50.000Z</time>
      </trkpt>
      <trkpt lat="41.679987" lon="-83.377101">
        <ele>175.01703921</ele>
        <time>2023-06-18T08:33:52.000Z</time>
      </trkpt>
      <trkpt lat="41.680095" lon="-83.377439">
        <ele>175.018085519</ele>
        <time>2023-06-18T08:33:55.000Z</time>
      </trkpt>
      <trkpt lat="41.680225" lon="-83.378108">
        <ele>175.020052924</ele>
        <time>2023-06-18T08:34:01.000Z</time>
      </trkpt>
      <trkpt lat="41.680358" lon="-83.37867">
        <ele>175.021730784</ele>
        <time>2023-06-18T08:34:06.000Z</time>
      </trkpt>
      <trkpt lat="41.680487" lon="-83.37905">
        <ele>175.022918759</ele>
        <time>2023-06-18T08:34:09.000Z</time>
      </trkpt>
      <trkpt lat="41.680763" lon="-83.379539">
        <ele>175.024663188</ele>
        <time>2023-06-18T08:34:14.000Z</time>
      </trkpt>
      <trkpt lat="41.681065" lon="-83.379895">
        <ele>175.026196463</ele>
        <time>2023-06-18T08:34:18.000Z</time>
      </trkpt>
      <trkpt lat="41.681122" lon="-83.379937">
        <ele>175.026444389</ele>
        <time>2023-06-18T08:34:19.000Z</time>
      </trkpt>
      <trkpt lat="41.681415" lon="-83.38013">
        <ele>175.027688709</ele>
        <time>2023-06-18T08:34:23.000Z</time>
      </trkpt>
      <trkpt lat="41.681666" lon="-83.380241">
        <ele>175.028696004</ele>
        <time>2023-06-18T08:34:26.000Z</time>
      </trkpt>
      <trkpt lat="41.681933" lon="-83.380281">
        <ele>175.029719799</ele>
        <time>2023-06-18T08:34:29.000Z</time>
      </trkpt>
      <trkpt lat="41.682196" lon="-83.380297">
        <ele>175.030723037</ele>
        <time>2023-06-18T08:34:32.000Z</time>
      </trkpt>
      <trkpt lat="41.68259" lon="-83.380227">
        <ele>175.032237596</ele>
        <time>2023-06-18T08:34:36.000Z</time>
      </trkpt>
      <trkpt lat="41.683972" lon="-83.379891">
        <ele>175.037590038</ele>
        <time>2023-06-18T08:34:52.000Z</time>
      </trkpt>
      <trkpt lat="41.684226" lon="-83.379831">
        <ele>175.038572892</ele>
        <time>2023-06-18T08:34:55.000Z</time>
      </trkpt>
    </trkseg>
  </trk>
</gpx>

<!--
Performance optimized by W3 Total Cache. Learn more: https://www.boldgrid.com/w3-total-cache/?utm_source=w3tc&utm_medium=footer_comment&utm_campaign=free_plugin

Page Caching using Disk: Enhanced{w3tc_pagecache_reject_reason} 

Served from: www.aquabike.world @ 2026-05-10 17:55:14 by W3 Total Cache
-->